Time;durP1;ratioP1;P1;durP2;ratioP2;P2;SDS_P1;SDS_P2;PMS_P1;PMS_P2;Temp;Humidity;BMP_temperature;BMP_pressure;BME280_temperature;BME280_humidity;BME280_pressure;Samples;Min_cycle;Max_cycle;Signal;HPM_P1;HPM_P2
2022/05/21 00:00:53;;;;;;;12.20;11.50;;;;;;;10.30;94.55;101283.22;5035960;28;20468;-51
2022/05/21 00:03:20;;;;;;;13.30;12.63;;;;;;;10.42;93.77;101291.59;5036834;28;20446;-49
2022/05/21 00:05:48;;;;;;;13.30;12.50;;;;;;;10.57;92.06;101295.13;5036708;28;20436;-48
2022/05/21 00:08:15;;;;;;;12.27;11.67;;;;;;;10.60;92.64;101283.25;5036505;28;20433;-45
2022/05/21 00:10:45;;;;;;;12.40;11.70;;;;;;;10.57;94.35;101299.63;5035514;28;20464;-45
2022/05/21 00:13:12;;;;;;;12.20;11.60;;;;;;;10.61;93.63;101296.38;5035687;28;20472;-47
2022/05/21 00:15:41;;;;;;;11.33;10.50;;;;;;;10.63;93.23;101298.88;5035332;28;20475;-45
2022/05/21 00:18:09;;;;;;;10.97;10.37;;;;;;;10.67;93.81;101294.81;5032896;28;20432;-48
2022/05/21 00:20:50;;;;;;;12.70;11.80;;;;;;;10.77;92.20;101306.88;5033512;28;20479;-46
2022/05/21 00:23:24;;;;;;;10.83;10.17;;;;;;;10.82;92.24;101315.16;5036198;28;20470;-45
2022/05/21 00:25:57;;;;;;;11.80;11.20;;;;;;;10.87;92.16;101307.41;5036665;28;20457;-49
2022/05/21 00:28:25;;;;;;;11.63;10.93;;;;;;;10.89;93.80;101301.91;5036242;28;20428;-49
2022/05/21 00:30:54;;;;;;;10.60;10.10;;;;;;;10.86;94.64;101304.94;5035403;28;20502;-47
2022/05/21 00:33:22;;;;;;;11.30;10.60;;;;;;;10.83;95.59;101313.31;5035708;28;20472;-48
2022/05/21 00:35:50;;;;;;;9.80;9.10;;;;;;;10.81;95.04;101297.47;5035787;28;20428;-47
2022/05/21 00:38:18;;;;;;;10.17;9.37;;;;;;;10.76;95.97;101302.56;5035746;28;20442;-46
2022/05/21 00:40:47;;;;;;;9.80;9.40;;;;;;;10.76;95.61;101309.72;5034691;28;20463;-47
2022/05/21 00:43:37;;;;;;;9.90;9.27;;;;;;;10.74;95.18;101315.25;5034637;28;20937;-45
2022/05/21 00:46:07;;;;;;;11.10;10.00;;;;;;;10.71;95.28;101310.28;5034871;28;20440;-45
2022/05/21 00:48:36;;;;;;;9.77;9.23;;;;;;;10.76;94.70;101312.38;5034880;28;20439;-47
2022/05/21 00:51:07;;;;;;;10.23;9.70;;;;;;;10.68;96.14;101313.31;5033925;28;20479;-48
2022/05/21 00:53:35;;;;;;;10.00;9.20;;;;;;;10.63;96.09;101323.72;5034293;28;20482;-47
2022/05/21 00:56:04;;;;;;;9.50;8.80;;;;;;;10.68;94.45;101329.31;5032781;28;20478;-46
2022/05/21 01:01:38;;;;;;;9.60;8.77;;;;;;;10.78;93.26;101324.53;4970349;28;20482;-45
2022/05/21 01:04:06;;;;;;;9.73;9.27;;;;;;;10.77;93.86;101325.56;4971559;28;20521;-45
2022/05/21 01:06:35;;;;;;;9.10;8.60;;;;;;;10.78;93.51;101326.41;5001476;28;20446;-50
2022/05/21 01:09:02;;;;;;;9.93;9.23;;;;;;;10.79;93.08;101320.84;5032879;28;20438;-47
2022/05/21 01:11:30;;;;;;;9.33;8.67;;;;;;;10.72;94.92;101316.47;5031641;28;20464;-50
2022/05/21 01:13:59;;;;;;;9.30;8.80;;;;;;;10.76;93.31;101323.06;5032486;28;20468;-45
2022/05/21 01:16:29;;;;;;;9.60;9.00;;;;;;;10.74;93.03;101328.59;5032019;28;20438;-44
2022/05/21 01:18:59;;;;;;;8.87;8.27;;;;;;;10.76;93.01;101326.56;5032601;28;20872;-49
2022/05/21 01:21:26;;;;;;;9.10;8.33;;;;;;;10.76;92.73;101321.22;5031237;28;20474;-46
2022/05/21 01:23:55;;;;;;;9.37;8.90;;;;;;;10.79;92.20;101326.19;5032382;28;20512;-45
2022/05/21 01:26:23;;;;;;;9.60;9.10;;;;;;;10.74;93.65;101325.94;5032007;28;20447;-46
2022/05/21 01:28:51;;;;;;;8.70;8.30;;;;;;;10.80;92.41;101324.34;5031952;28;20437;-50
2022/05/21 01:31:19;;;;;;;8.90;8.20;;;;;;;10.82;91.65;101325.00;5031258;28;20467;-46
2022/05/21 01:33:47;;;;;;;10.00;9.10;;;;;;;10.88;90.48;101327.75;5033014;28;20514;-49
2022/05/21 01:36:15;;;;;;;9.13;8.43;;;;;;;10.90;91.17;101322.25;5035621;28;20937;-45
2022/05/21 01:38:43;;;;;;;8.90;8.33;;;;;;;10.89;91.85;101320.59;5035511;28;20443;-44
2022/05/21 01:41:12;;;;;;;10.07;9.17;;;;;;;10.89;91.58;101312.59;5034908;28;20464;-47
2022/05/21 01:46:25;;;;;;;9.10;8.50;;;;;;;10.81;93.18;101318.03;5035356;28;20951;-45
2022/05/21 01:48:53;;;;;;;8.53;8.03;;;;;;;10.83;92.24;101327.50;5035224;28;20802;-44
2022/05/21 01:51:21;;;;;;;9.20;8.60;;;;;;;10.86;91.99;101323.63;5034592;28;20452;-48
2022/05/21 01:53:49;;;;;;;9.23;8.43;;;;;;;10.87;91.43;101326.09;5035247;28;20479;-48
2022/05/21 01:56:18;;;;;;;9.37;8.57;;;;;;;10.87;91.37;101322.63;5035371;28;20442;-48
2022/05/21 01:58:45;;;;;;;9.57;8.97;;;;;;;10.86;91.98;101327.13;5035316;28;20428;-45
2022/05/21 02:01:14;;;;;;;9.07;8.57;;;;;;;10.87;91.63;101330.63;5034144;28;20453;-48
2022/05/21 02:03:42;;;;;;;9.43;8.57;;;;;;;10.84;91.98;101328.31;5035453;28;20519;-46
2022/05/21 02:06:10;;;;;;;8.80;8.20;;;;;;;10.84;91.36;101326.47;5034982;28;20443;-47
2022/05/21 02:08:37;;;;;;;8.73;8.20;;;;;;;10.82;91.28;101338.34;5034782;28;20910;-45
2022/05/21 02:11:05;;;;;;;8.67;8.00;;;;;;;10.82;91.47;101333.00;5034314;28;20510;-47
2022/05/21 02:13:36;;;;;;;9.30;8.70;;;;;;;10.84;91.02;101334.47;5035011;28;20475;-46
2022/05/21 02:16:03;;;;;;;8.80;8.40;;;;;;;10.89;90.04;101333.94;5035291;28;20440;-48
2022/05/21 02:18:32;;;;;;;9.50;9.03;;;;;;;10.90;90.29;101333.72;5034292;28;20428;-49
2022/05/21 02:20:59;;;;;;;8.50;8.10;;;;;;;10.94;89.90;101339.53;5033388;28;20464;-46
2022/05/21 02:23:27;;;;;;;8.33;7.93;;;;;;;10.95;89.68;101334.03;5034310;28;20519;-48
2022/05/21 02:25:59;;;;;;;9.63;8.80;;;;;;;10.98;89.46;101341.66;5034312;28;20909;-47
2022/05/21 02:28:27;;;;;;;9.67;9.00;;;;;;;11.03;88.25;101343.75;5034781;28;20428;-49
2022/05/21 02:30:56;;;;;;;10.03;9.10;;;;;;;11.06;88.78;101336.22;5033526;28;20475;-51
2022/05/21 02:33:24;;;;;;;8.87;8.27;;;;;;;11.09;88.38;101338.53;5033922;28;20476;-49
2022/05/21 02:35:52;;;;;;;9.17;8.63;;;;;;;11.11;88.52;101338.31;5033877;28;20436;-48
2022/05/21 02:41:10;;;;;;;8.90;8.40;;;;;;;11.15;88.43;101342.28;5033269;28;20470;-50
2022/05/21 02:43:37;;;;;;;9.47;8.67;;;;;;;11.17;88.70;101342.91;5033973;28;20432;-52
2022/05/21 02:46:06;;;;;;;9.73;9.00;;;;;;;11.20;88.18;101339.06;5033213;28;20809;-47
2022/05/21 02:48:34;;;;;;;9.90;9.30;;;;;;;11.20;89.97;101344.41;5033931;28;20802;-48
2022/05/21 02:51:02;;;;;;;10.23;9.37;;;;;;;11.22;89.20;101343.22;5032959;28;20464;-48
2022/05/21 02:53:30;;;;;;;9.93;9.03;;;;;;;11.24;89.74;101338.50;5033480;28;20474;-51
2022/05/21 02:56:04;;;;;;;13.23;8.50;;;;;;;11.29;88.42;101333.41;5033672;28;20432;-49
2022/05/21 02:58:32;;;;;;;9.50;8.70;;;;;;;11.31;88.74;101341.25;5033513;28;20428;-50
2022/05/21 03:01:00;;;;;;;8.90;8.30;;;;;;;11.35;87.63;101335.34;5032833;28;20468;-50
2022/05/21 03:03:29;;;;;;;10.20;9.23;;;;;;;11.36;87.96;101339.69;5033562;28;20428;-46
2022/05/21 03:05:58;;;;;;;9.87;8.83;;;;;;;11.38;88.16;101340.31;5033375;28;20433;-48
2022/05/21 03:11:11;;;;;;;9.20;8.40;;;;;;;11.45;86.84;101335.88;5032369;28;20460;-49
2022/05/21 03:13:39;;;;;;;10.40;8.73;;;;;;;11.48;85.90;101337.34;5033328;28;20482;-49
2022/05/21 03:16:07;;;;;;;8.53;7.90;;;;;;;11.50;85.63;101325.47;5033328;28;20525;-52
2022/05/21 03:18:37;;;;;;;11.83;8.60;;;;;;;11.54;85.91;101334.75;5033053;28;20436;-49
2022/05/21 03:21:05;;;;;;;12.03;8.30;;;;;;;11.52;86.55;101328.78;5032382;28;20467;-50
2022/05/21 03:23:32;;;;;;;12.93;8.17;;;;;;;11.54;86.35;101325.91;5032964;28;20424;-49
2022/05/21 03:26:00;;;;;;;8.97;8.13;;;;;;;11.52;87.50;101322.63;5033215;28;20431;-49
2022/05/21 03:28:27;;;;;;;8.13;7.77;;;;;;;11.53;87.91;101325.09;5033129;28;20511;-50
2022/05/21 03:30:55;;;;;;;10.37;9.50;;;;;;;11.56;87.56;101324.69;5032002;28;21011;-47
2022/05/21 03:33:23;;;;;;;8.90;8.10;;;;;;;11.59;87.59;101329.66;5032908;28;20432;-46
2022/05/21 03:35:52;;;;;;;10.53;7.97;;;;;;;11.61;87.18;101316.13;5032848;28;20922;-46
2022/05/21 03:38:19;;;;;;;9.27;8.30;;;;;;;11.58;87.98;101317.34;5032607;28;20438;-51
2022/05/21 03:40:48;;;;;;;19.30;8.30;;;;;;;11.61;88.39;101310.81;5032023;28;20471;-46
2022/05/21 03:43:15;;;;;;;18.53;8.90;;;;;;;11.61;88.64;101316.97;5032757;28;20432;-49
2022/05/21 03:45:43;;;;;;;9.77;7.80;;;;;;;11.64;88.21;101316.59;5032658;28;20434;-48
2022/05/21 03:48:11;;;;;;;9.37;8.43;;;;;;;11.64;88.86;101310.41;5032700;28;20435;-47
2022/05/21 03:50:39;;;;;;;11.90;8.30;;;;;;;11.67;89.83;101312.72;5031630;28;20468;-48
2022/05/21 03:53:09;;;;;;;11.57;8.10;;;;;;;11.74;88.93;101310.94;5032676;28;20432;-47
2022/05/21 03:55:37;;;;;;;11.33;8.33;;;;;;;11.85;88.60;101304.28;5031968;28;21011;-46
2022/05/21 03:58:04;;;;;;;14.97;8.77;;;;;;;11.84;91.43;101311.47;5032134;28;20428;-50
2022/05/21 04:00:32;;;;;;;10.00;8.10;;;;;;;11.87;91.30;101308.41;5031607;28;20894;-46
2022/05/21 04:03:01;;;;;;;14.10;7.83;;;;;;;11.83;94.09;101301.78;5032210;28;20433;-47
2022/05/21 04:05:28;;;;;;;10.97;8.80;;;;;;;11.87;93.77;101310.25;5032233;28;20428;-48
2022/05/21 04:07:56;;;;;;;8.50;7.80;;;;;;;11.97;93.67;101305.44;5032354;28;20428;-50
2022/05/21 04:10:25;;;;;;;10.10;7.40;;;;;;;12.09;93.82;101296.72;5031354;28;20498;-48
2022/05/21 04:12:53;;;;;;;12.20;9.00;;;;;;;12.18;94.64;101287.50;5032209;28;20431;-49
2022/05/21 04:15:21;;;;;;;10.90;8.67;;;;;;;12.17;98.89;101293.06;5032091;28;20562;-48
2022/05/21 04:17:48;;;;;;;9.47;8.60;;;;;;;12.24;97.96;101287.75;5031951;28;20432;-49
2022/05/21 04:20:18;;;;;;;11.60;8.07;;;;;;;12.22;98.89;101287.94;5031494;28;20460;-52
2022/05/21 04:22:46;;;;;;;8.57;7.87;;;;;;;12.23;98.12;101286.94;5032081;28;20439;-48
2022/05/21 04:25:13;;;;;;;8.60;7.63;;;;;;;12.25;98.64;101281.38;5032076;28;20454;-48
2022/05/21 04:27:43;;;;;;;8.53;7.60;;;;;;;12.29;98.67;101288.84;5032039;28;20432;-50
2022/05/21 04:30:15;;;;;;;9.40;7.83;;;;;;;12.35;98.34;101284.53;5031368;28;20460;-47
2022/05/21 04:32:43;;;;;;;8.30;7.60;;;;;;;12.45;98.17;101282.38;5031790;28;20434;-51
2022/05/21 04:35:11;;;;;;;8.67;7.20;;;;;;;12.55;98.95;101272.97;5031940;28;20476;-47
2022/05/21 04:37:40;;;;;;;8.20;7.60;;;;;;;12.73;99.05;101275.94;5031732;28;20442;-48
2022/05/21 04:40:11;;;;;;;8.43;7.57;;;;;;;12.82;99.32;101279.28;5031446;28;20460;-49
2022/05/21 04:42:38;;;;;;;7.77;7.17;;;;;;;12.82;99.65;101287.31;5031652;28;20455;-51
2022/05/21 04:45:09;;;;;;;10.13;8.37;;;;;;;12.79;100.00;101279.69;5031671;28;20442;-47
2022/05/21 04:47:38;;;;;;;9.37;7.50;;;;;;;12.84;99.86;101290.63;5031663;28;20424;-47
2022/05/21 04:50:08;;;;;;;10.70;7.97;;;;;;;12.90;99.73;101272.97;5031357;28;20460;-51
2022/05/21 04:52:36;;;;;;;10.63;8.20;;;;;;;12.89;100.00;101279.31;5031626;28;20535;-47
2022/05/21 04:55:06;;;;;;;8.20;7.60;;;;;;;12.91;100.00;101275.41;5031483;28;20467;-46
2022/05/21 04:57:34;;;;;;;9.47;7.60;;;;;;;12.95;99.59;101274.00;5031592;28;20438;-49
2022/05/21 05:00:03;;;;;;;9.10;7.93;;;;;;;13.01;99.56;101272.38;5031124;28;21005;-49
2022/05/21 05:02:31;;;;;;;10.00;8.00;;;;;;;13.06;99.88;101277.94;5031448;28;20455;-46
2022/05/21 05:05:00;;;;;;;11.73;9.43;;;;;;;13.04;100.00;101282.69;5031615;28;20440;-46
2022/05/21 05:07:27;;;;;;;10.57;8.40;;;;;;;13.04;99.26;101272.81;5032250;28;20439;-49
2022/05/21 05:09:55;;;;;;;10.50;8.60;;;;;;;13.00;100.00;101266.19;5034919;28;20829;-48
2022/05/21 05:12:22;;;;;;;8.20;7.60;;;;;;;13.04;99.47;101261.28;5035210;28;20462;-47
2022/05/21 05:14:50;;;;;;;9.10;8.40;;;;;;;12.99;99.70;101264.53;5035540;28;20498;-49
2022/05/21 05:17:17;;;;;;;9.03;8.30;;;;;;;13.01;99.53;101257.16;5035607;28;20436;-45
2022/05/21 05:19:47;;;;;;;16.47;9.37;;;;;;;13.12;98.25;101250.41;5035004;28;20468;-48
2022/05/21 05:22:15;;;;;;;9.67;8.97;;;;;;;13.16;98.38;101254.34;5034928;28;20470;-46
2022/05/21 05:24:42;;;;;;;10.37;9.57;;;;;;;13.21;98.60;101262.59;5035210;28;20432;-47
2022/05/21 05:27:10;;;;;;;10.10;9.20;;;;;;;13.21;98.15;101268.78;5035492;28;20436;-45
2022/05/21 05:29:38;;;;;;;14.90;10.33;;;;;;;13.27;98.27;101270.66;5034673;28;21071;-47
2022/05/21 05:32:07;;;;;;;14.80;10.77;;;;;;;13.30;97.56;101275.63;5034831;28;20500;-46
2022/05/21 05:34:34;;;;;;;14.40;9.63;;;;;;;13.34;97.35;101275.22;5034980;28;20440;-50
2022/05/21 05:37:04;;;;;;;11.33;10.20;;;;;;;13.36;97.34;101273.97;5034961;28;20798;-45
2022/05/21 05:39:32;;;;;;;11.30;10.23;;;;;;;13.43;97.61;101264.13;5034514;28;20987;-49
2022/05/21 05:42:03;;;;;;;16.77;10.03;;;;;;;13.48;96.80;101267.00;5034922;28;20444;-48
2022/05/21 05:44:31;;;;;;;12.73;10.40;;;;;;;13.57;96.99;101267.63;5034164;28;20444;-51
2022/05/21 05:46:59;;;;;;;11.90;10.70;;;;;;;13.64;97.73;101269.31;5033160;28;20439;-48
2022/05/21 05:49:26;;;;;;;14.93;11.60;;;;;;;13.72;96.54;101261.06;5034004;28;20801;-47
2022/05/21 05:51:54;;;;;;;11.90;10.60;;;;;;;13.73;97.66;101265.41;5034358;28;20881;-45
2022/05/21 05:54:23;;;;;;;15.90;11.13;;;;;;;13.76;97.23;101265.00;5034754;28;20432;-47
2022/05/21 05:56:50;;;;;;;13.13;11.93;;;;;;;13.84;96.39;101270.16;5034586;28;20476;-47
2022/05/21 06:04:48;;;;;;;14.40;11.60;;;;;;;13.88;97.90;101259.03;5033912;28;20435;-51
2022/05/21 06:07:16;;;;;;;11.53;10.43;;;;;;;13.81;98.14;101262.53;5034234;28;20439;-47
2022/05/21 06:09:45;;;;;;;20.90;11.57;;;;;;;13.76;98.69;101266.84;5033724;28;20456;-46
2022/05/21 06:12:12;;;;;;;12.37;11.17;;;;;;;13.82;98.25;101260.69;5033731;28;20456;-47
2022/05/21 06:14:41;;;;;;;14.80;11.20;;;;;;;13.93;97.62;101260.06;5032668;28;20960;-47
2022/05/21 06:17:09;;;;;;;11.37;10.37;;;;;;;14.16;97.39;101246.22;5031803;28;20432;-49
2022/05/21 06:19:37;;;;;;;10.77;9.87;;;;;;;14.51;96.10;101263.78;5032719;28;20486;-48
2022/05/21 06:22:05;;;;;;;12.97;11.00;;;;;;;14.83;95.98;101257.47;5033715;28;20452;-47
2022/05/21 06:24:35;;;;;;;10.10;9.30;;;;;;;15.09;98.58;101253.84;5033836;28;20936;-47
2022/05/21 06:27:04;;;;;;;11.73;10.83;;;;;;;15.13;99.65;101256.94;5033708;28;20801;-46
2022/05/21 06:29:32;;;;;;;10.57;9.57;;;;;;;15.24;99.56;101254.41;5032914;28;20466;-48
2022/05/21 06:32:00;;;;;;;10.30;9.40;;;;;;;15.44;99.46;101255.13;5033135;28;20464;-49
2022/05/21 06:34:28;;;;;;;13.10;9.53;;;;;;;15.76;99.74;101255.16;5033746;28;20464;-47
2022/05/21 06:36:55;;;;;;;9.60;8.90;;;;;;;15.75;99.00;101253.50;5033549;28;20476;-50
2022/05/21 06:39:23;;;;;;;10.33;9.43;;;;;;;15.74;98.61;101258.06;5033127;28;20432;-46
2022/05/21 06:41:50;;;;;;;10.67;9.50;;;;;;;15.78;98.72;101261.13;5009478;28;20996;-51
2022/05/21 06:44:19;;;;;;;13.07;10.10;;;;;;;15.72;98.01;101257.44;5032239;28;20828;-51
2022/05/21 06:46:47;;;;;;;10.93;10.10;;;;;;;15.72;97.82;101259.31;5033432;28;20433;-52
2022/05/21 06:49:15;;;;;;;12.93;10.07;;;;;;;15.67;97.08;101256.47;5033382;28;20432;-47
2022/05/21 06:51:42;;;;;;;11.40;10.40;;;;;;;15.61;96.83;101254.63;5033058;28;20543;-49
2022/05/21 06:54:10;;;;;;;11.73;9.73;;;;;;;15.53;95.65;101257.59;5032780;28;20464;-47
2022/05/21 06:56:40;;;;;;;11.77;9.17;;;;;;;15.59;96.77;101245.97;5033084;28;21037;-48
2022/05/21 06:59:08;;;;;;;12.80;9.83;;;;;;;15.52;96.49;101254.09;5032720;28;20446;-47
2022/05/21 07:01:37;;;;;;;11.00;9.03;;;;;;;15.52;97.03;101259.47;5032867;28;20463;-49
2022/05/21 07:04:05;;;;;;;9.80;8.80;;;;;;;15.46;96.98;101254.91;5030870;28;20456;-47
2022/05/21 07:09:19;;;;;;;13.40;8.23;;;;;;;15.22;97.16;101261.88;5030823;28;20440;-48
2022/05/21 07:11:48;;;;;;;8.83;8.20;;;;;;;15.23;96.86;101268.88;5031300;28;20821;-49
2022/05/21 07:14:16;;;;;;;10.30;9.10;;;;;;;15.19;96.53;101264.97;5031238;28;20474;-50
2022/05/21 07:16:45;;;;;;;13.30;9.20;;;;;;;15.17;96.58;101267.03;5032516;28;20501;-49
2022/05/21 07:19:12;;;;;;;10.50;9.50;;;;;;;15.18;96.57;101267.88;5031975;28;20787;-50
2022/05/21 07:21:40;;;;;;;9.83;9.03;;;;;;;15.17;96.83;101263.56;5031388;28;20452;-47
2022/05/21 07:24:08;;;;;;;8.67;7.87;;;;;;;15.10;96.56;101270.81;5031286;28;20456;-46
2022/05/21 07:26:36;;;;;;;9.90;8.90;;;;;;;15.05;96.68;101273.31;5032708;28;20429;-46
2022/05/21 07:29:04;;;;;;;10.43;8.33;;;;;;;15.01;96.38;101277.44;5031510;28;20440;-50
2022/05/21 07:31:31;;;;;;;19.57;8.70;;;;;;;15.06;97.58;101274.94;5030722;28;20550;-50
2022/05/21 07:34:00;;;;;;;18.90;9.40;;;;;;;15.00;97.29;101279.31;5031282;28;20471;-48
2022/05/21 07:36:28;;;;;;;17.80;9.70;;;;;;;14.96;97.28;101284.28;5032178;28;20475;-48
2022/05/21 07:38:56;;;;;;;10.00;8.83;;;;;;;15.29;98.39;101281.44;5031849;28;20484;-50
2022/05/21 07:41:23;;;;;;;10.60;8.83;;;;;;;15.38;98.03;101282.84;5030803;28;20978;-51
2022/05/21 07:43:51;;;;;;;10.63;9.70;;;;;;;15.55;98.24;101283.22;5030216;28;20555;-46
2022/05/21 07:46:18;;;;;;;15.53;10.60;;;;;;;15.70;98.09;101281.06;5032185;28;20428;-48
2022/05/21 07:48:46;;;;;;;10.37;9.20;;;;;;;15.80;97.87;101284.06;5033564;28;20845;-48
2022/05/21 07:51:15;;;;;;;11.23;8.80;;;;;;;15.78;97.10;101286.16;5032164;28;20520;-49
2022/05/21 07:53:43;;;;;;;12.53;9.27;;;;;;;15.69;96.06;101287.47;5030826;28;20464;-48
2022/05/21 07:56:16;;;;;;;9.23;8.37;;;;;;;15.70;95.20;101294.50;5032385;28;20468;-50
2022/05/21 07:58:44;;;;;;;10.07;9.10;;;;;;;15.77;94.60;101287.19;5032049;28;20432;-46
2022/05/21 08:01:12;;;;;;;9.83;8.30;;;;;;;16.08;96.45;101298.97;5031986;28;20966;-49
2022/05/21 08:03:46;;;;;;;11.10;8.17;;;;;;;16.34;94.33;101296.06;5031861;28;20535;-48
2022/05/21 08:06:15;;;;;;;8.80;8.00;;;;;;;16.48;93.21;101309.19;5031897;28;20427;-49
2022/05/21 08:08:43;;;;;;;11.20;8.67;;;;;;;16.26;90.84;101305.25;5032285;28;20428;-51
2022/05/21 08:11:11;;;;;;;12.57;9.27;;;;;;;16.43;92.06;101308.19;5032011;28;20452;-52
2022/05/21 08:13:39;;;;;;;9.47;8.87;;;;;;;16.76;93.68;101307.91;5031704;28;21021;-49
2022/05/21 08:16:07;;;;;;;16.60;9.20;;;;;;;17.04;92.30;101297.44;5032051;28;20488;-47
2022/05/21 08:18:35;;;;;;;10.30;9.40;;;;;;;17.26;90.64;101301.31;5032196;28;20450;-51
2022/05/21 08:21:02;;;;;;;12.67;9.70;;;;;;;17.60;90.69;101307.94;5031398;28;21116;-46
2022/05/21 08:29:02;;;;;;;13.60;9.60;;;;;;;17.37;83.34;101319.44;5032051;28;20442;-51
2022/05/21 08:31:30;;;;;;;13.40;9.37;;;;;;;17.81;86.03;101317.38;5031871;28;20830;-48
2022/05/21 08:33:57;;;;;;;9.43;8.60;;;;;;;18.28;81.42;101315.63;5031214;28;20518;-46
2022/05/21 08:36:25;;;;;;;10.57;8.93;;;;;;;18.82;79.66;101303.69;5032039;28;20497;-49
2022/05/21 08:38:54;;;;;;;12.60;9.10;;;;;;;19.00;76.69;101308.91;5032013;28;20447;-48
2022/05/21 08:41:24;;;;;;;8.40;7.77;;;;;;;18.31;76.01;101323.28;5031375;28;20455;-47
2022/05/21 08:44:00;;;;;;;8.60;7.77;;;;;;;17.87;76.64;101314.59;5030866;28;20992;-45
2022/05/21 08:46:48;;;;;;;9.53;8.63;;;;;;;17.67;77.82;101325.69;5031552;28;20423;-49
2022/05/21 08:49:25;;;;;;;12.27;8.70;;;;;;;17.33;77.59;101330.88;5031691;28;20467;-47
2022/05/21 08:51:59;;;;;;;9.20;7.93;;;;;;;17.26;78.81;101322.06;5031458;28;20450;-48
2022/05/21 08:54:33;;;;;;;14.00;8.70;;;;;;;17.21;79.45;101324.59;5031116;28;20463;-46
2022/05/21 08:57:03;;;;;;;11.87;8.23;;;;;;;17.38;81.28;101331.84;5031371;28;20859;-49
2022/05/21 08:59:36;;;;;;;9.57;8.00;;;;;;;17.83;81.56;101323.41;5031728;28;20434;-48
2022/05/21 09:02:06;;;;;;;9.07;7.73;;;;;;;18.22;79.41;101325.47;5030917;28;20454;-45
2022/05/21 09:04:34;;;;;;;10.83;8.40;;;;;;;18.69;77.64;101319.09;5031623;28;20455;-47
2022/05/21 09:07:05;;;;;;;16.30;9.67;;;;;;;19.06;75.68;101335.81;5031541;28;20428;-47
2022/05/21 09:09:53;;;;;;;12.93;8.00;;;;;;;18.72;71.39;101328.59;5031544;28;20515;-47
2022/05/21 09:12:24;;;;;;;10.00;7.70;;;;;;;18.08;73.86;101338.34;5030675;28;20805;-48
2022/05/21 09:14:55;;;;;;;9.70;8.00;;;;;;;17.51;76.36;101347.03;5031525;28;20439;-45
2022/05/21 09:17:24;;;;;;;7.87;7.10;;;;;;;17.73;74.60;101348.22;5031368;28;20475;-48
2022/05/21 09:19:55;;;;;;;7.60;6.83;;;;;;;18.07;71.57;101342.09;5030300;28;20845;-48
2022/05/21 09:22:29;;;;;;;8.37;6.13;;;;;;;18.43;71.39;101348.41;5028912;28;20971;-47
2022/05/21 09:25:22;;;;;;;6.57;6.07;;;;;;;19.11;72.30;101343.22;5029464;28;20435;-46
2022/05/21 09:28:01;;;;;;;7.30;6.60;;;;;;;18.82;66.61;101339.59;5030060;28;20427;-47
2022/05/21 09:30:32;;;;;;;6.90;6.07;;;;;;;18.57;68.84;101350.69;5029972;28;20431;-46
2022/05/21 09:33:01;;;;;;;6.40;5.90;;;;;;;18.76;67.15;101341.38;5030806;28;20467;-47
2022/05/21 09:35:31;;;;;;;6.77;6.17;;;;;;;18.28;69.36;101351.53;5031320;28;20439;-45
2022/05/21 09:38:12;;;;;;;7.20;6.70;;;;;;;17.92;70.92;101354.41;5031069;28;20482;-46
2022/05/21 09:40:42;;;;;;;7.40;6.33;;;;;;;17.84;71.16;101358.22;5030972;28;20527;-48
2022/05/21 09:46:17;;;;;;;7.03;6.33;;;;;;;17.20;74.02;101377.69;5031271;28;20438;-50
2022/05/21 09:48:46;;;;;;;7.93;7.20;;;;;;;17.20;74.54;101371.47;5031227;28;20431;-47
2022/05/21 09:51:25;;;;;;;14.60;7.80;;;;;;;17.24;76.17;101362.72;5030712;28;20448;-45
2022/05/21 09:53:53;;;;;;;8.37;7.50;;;;;;;17.97;74.49;101373.41;5030818;28;20460;-47
2022/05/21 09:56:24;;;;;;;7.97;7.30;;;;;;;17.76;72.99;101368.53;5034701;28;20431;-45
2022/05/21 09:58:54;;;;;;;11.93;6.73;;;;;;;17.52;72.21;101375.66;5034503;28;20473;-47
2022/05/21 10:01:36;;;;;;;7.33;6.50;;;;;;;17.33;72.94;101379.41;5034315;28;20451;-47
2022/05/21 10:04:13;;;;;;;6.13;5.67;;;;;;;17.12;71.78;101376.09;5034178;28;20514;-45
2022/05/21 10:06:46;;;;;;;11.40;6.20;;;;;;;17.01;73.56;101393.03;5034713;28;20428;-47
2022/05/21 10:12:11;;;;;;;7.53;6.10;;;;;;;16.52;74.23;101399.25;5034091;28;20452;-44
2022/05/21 10:14:44;;;;;;;6.53;5.57;;;;;;;16.20;78.81;101403.00;5034317;28;20530;-48
2022/05/21 10:17:22;;;;;;;6.97;6.27;;;;;;;15.94;78.15;101408.56;5034462;28;20464;-51
2022/05/21 10:19:55;;;;;;;6.00;5.40;;;;;;;16.09;79.09;101410.94;5034446;28;20427;-46
2022/05/21 10:22:41;;;;;;;7.13;6.20;;;;;;;16.14;76.34;101411.94;5033147;28;20458;-47
2022/05/21 10:25:14;;;;;;;6.20;5.70;;;;;;;16.13;76.74;101412.97;5034275;28;20432;-46
2022/05/21 10:27:58;;;;;;;5.93;5.43;;;;;;;15.79;80.23;101422.28;5034230;28;20436;-45
2022/05/21 10:30:31;;;;;;;6.93;5.80;;;;;;;15.91;79.21;101436.72;5033506;28;20462;-47
2022/05/21 10:33:20;;;;;;;6.67;6.07;;;;;;;15.74;77.87;101435.53;5033521;28;20459;-46
2022/05/21 10:36:01;;;;;;;6.77;6.30;;;;;;;15.61;78.72;101440.97;5034141;28;20431;-45
2022/05/21 10:38:46;;;;;;;7.50;6.50;;;;;;;15.87;81.89;101448.94;5033609;28;20810;-47
2022/05/21 10:41:25;;;;;;;7.73;6.10;;;;;;;16.04;80.15;101444.69;5033467;28;20657;-46
2022/05/21 10:44:08;;;;;;;8.30;6.70;;;;;;;16.12;79.17;101437.41;5033386;28;20833;-46
2022/05/21 10:46:51;;;;;;;10.53;7.10;;;;;;;16.14;78.24;101438.03;5033578;28;20442;-47
2022/05/21 10:49:35;;;;;;;8.40;6.17;;;;;;;16.39;76.29;101446.97;5033547;28;20439;-50
2022/05/21 10:52:12;;;;;;;8.00;7.10;;;;;;;17.05;75.68;101447.31;5033312;28;20448;-45
2022/05/21 10:54:54;;;;;;;7.60;6.80;;;;;;;17.73;72.11;101445.34;5033359;28;20439;-45
2022/05/21 10:57:35;;;;;;;12.80;6.80;;;;;;;18.05;73.00;101446.78;5033402;28;20435;-48
2022/05/21 11:00:09;;;;;;;7.03;6.23;;;;;;;18.15;67.55;101447.06;5033832;28;20428;-45
2022/05/21 11:03:25;;;;;;;7.80;7.00;;;;;;;18.48;68.81;101449.28;5032886;28;20786;-49
2022/05/21 11:06:18;;;;;;;9.50;6.67;;;;;;;17.83;68.20;101459.09;5033152;28;20432;-45
2022/05/21 11:08:55;;;;;;;7.23;6.63;;;;;;;17.85;70.31;101465.09;5033466;28;20436;-46
2022/05/21 11:11:32;;;;;;;10.10;6.27;;;;;;;17.87;69.20;101479.19;5033123;28;20455;-46
2022/05/21 11:14:06;;;;;;;8.30;6.67;;;;;;;17.66;68.62;101475.09;5033134;28;20829;-47
2022/05/21 11:16:42;;;;;;;11.37;7.30;;;;;;;17.79;70.70;101474.09;5033316;28;20824;-46
2022/05/21 11:19:16;;;;;;;10.10;6.13;;;;;;;17.67;70.51;101484.00;5033343;28;20479;-47
2022/05/21 11:21:49;;;;;;;6.90;6.23;;;;;;;17.47;70.87;101484.19;5032964;28;20454;-47
2022/05/21 11:24:23;;;;;;;8.67;6.10;;;;;;;17.43;72.88;101483.00;5032600;28;20462;-46
2022/05/21 11:26:57;;;;;;;14.40;7.50;;;;;;;17.61;72.21;101490.28;5032785;28;20428;-47
2022/05/21 11:29:36;;;;;;;6.90;6.40;;;;;;;17.92;70.34;101490.13;5032897;28;20933;-45
2022/05/21 11:37:48;;;;;;;8.30;7.27;;;;;;;18.08;67.64;101494.06;5032480;28;20442;-50
2022/05/21 11:40:50;;;;;;;9.13;7.43;;;;;;;17.59;68.35;101498.59;5032641;28;20431;-47
2022/05/21 11:43:20;;;;;;;7.23;6.67;;;;;;;17.56;69.84;101517.91;5031970;28;20477;-48
2022/05/21 11:46:01;;;;;;;7.57;6.80;;;;;;;18.16;66.87;101515.34;5032207;28;20431;-49
2022/05/21 11:48:31;;;;;;;7.30;6.70;;;;;;;17.91;65.21;101515.47;5032725;28;20435;-46
2022/05/21 11:51:34;;;;;;;7.20;6.40;;;;;;;18.04;66.90;101518.00;5032226;28;20458;-47
2022/05/21 11:54:02;;;;;;;7.80;6.30;;;;;;;17.76;63.93;101512.34;5031535;28;20459;-46
2022/05/21 11:57:04;;;;;;;8.30;7.57;;;;;;;17.24;66.38;101524.44;5031337;28;20793;-47
2022/05/21 11:59:50;;;;;;;7.90;7.10;;;;;;;17.50;66.49;101528.78;5032435;28;20943;-48
2022/05/21 12:02:23;;;;;;;9.57;7.63;;;;;;;18.17;66.49;101531.34;5031252;28;20459;-46
2022/05/21 12:04:55;;;;;;;8.50;7.70;;;;;;;17.88;64.56;101532.13;5032574;28;20439;-49
2022/05/21 12:07:53;;;;;;;13.07;7.53;;;;;;;17.27;65.18;101555.50;5032391;28;20455;-45
2022/05/21 12:10:51;;;;;;;9.30;7.83;;;;;;;16.92;67.05;101545.22;5031509;28;20436;-47
2022/05/21 12:13:22;;;;;;;12.90;8.20;;;;;;;16.44;69.55;101552.97;5031781;28;20474;-48